Terminal Aerodrome Forecast
Issued by NWS Jackson, MS

Home | Current Version | Previous Version | Text Only | Print | Product List | Glossary On
Versions: 1 2 3 4 5 6 7 8 9 10 11 12 13
230
FTUS44 KJAN 232333
TAFGWO
TAF
KGWO 232333Z 2400/2424 16003KT P6SM BKN250
     FM241400 21003KT P6SM SCT030
     FM241800 19004KT P6SM VCTS SCT050CB=

USA.gov is the U.S. government's official web portal to all federal, state and local government web resources and services.